Time;durP1;ratioP1;P1;durP2;ratioP2;P2;SDS_P1;SDS_P2;PMS_P1;PMS_P2;Temp;Humidity;BMP_temperature;BMP_pressure;BME280_temperature;BME280_humidity;BME280_pressure;Samples;Min_cycle;Max_cycle;Signal;HPM_P1;HPM_P2
2022/09/30 00:00:26;;;;;;;;;;;;;;;-142.75;100.00;77054.56;5014270;28;20287;-67
2022/09/30 00:02:51;;;;;;;;;;;;;;;-142.75;100.00;77040.78;5031803;28;20485;-68
2022/09/30 00:05:17;;;;;;;;;;;;;;;-142.75;100.00;77042.75;5014033;28;20375;-67
2022/09/30 00:07:42;;;;;;;;;;;;;;;-142.75;100.00;77046.69;5031503;28;19967;-68
2022/09/30 00:10:07;;;;;;;;;;;;;;;-142.75;100.00;77042.75;5031810;28;20016;-67
2022/09/30 00:12:33;;;;;;;;;;;;;;;-142.75;100.00;77027.00;5031802;28;19913;-68
2022/09/30 00:14:58;;;;;;;;;;;;;;;-142.75;100.00;77019.13;5031821;28;19923;-67
2022/09/30 00:17:23;;;;;;;;;;;;;;;-142.75;100.00;77021.09;5029056;28;19917;-67
2022/09/30 00:19:48;;;;;;;;;;;;;;;-142.75;100.00;77013.22;5031740;28;20338;-68
2022/09/30 00:22:13;;;;;;;;;;;;;;;-142.75;100.00;77040.78;5031637;28;19921;-67
2022/09/30 00:24:39;;;;;;;;;;;;;;;-142.75;100.00;77046.69;5031693;28;20290;-68
2022/09/30 00:27:04;;;;;;;;;;;;;;;-142.75;100.00;77042.75;5031352;28;20374;-68
2022/09/30 00:29:29;;;;;;;;;;;;;;;-142.75;100.00;77050.63;5033337;28;19967;-68
2022/09/30 00:31:54;;;;;;;;;;;;;;;-142.75;100.00;77062.44;5035305;28;19913;-68
2022/09/30 00:34:20;;;;;;;;;;;;;;;-142.75;100.00;77064.41;5035268;28;19920;-67
2022/09/30 00:36:45;;;;;;;;;;;;;;;-142.75;100.00;77054.56;5034801;28;20306;-68
2022/09/30 00:39:15;;;;;;;;;;;;;;;-142.75;100.00;77050.63;5035174;28;20370;-68
2022/09/30 00:41:40;;;;;;;;;;;;;;;-142.75;100.00;77028.97;5035103;28;20403;-68
2022/09/30 00:44:24;;;;;;;;;;;;;;;-142.75;100.00;77017.16;5035188;28;19928;-68
2022/09/30 00:46:50;;;;;;;;;;;;;;;-142.75;100.00;77011.25;5033155;28;20341;-67
2022/09/30 00:49:18;;;;;;;;;;;;;;;-142.75;100.00;77003.38;5035106;28;19994;-68
2022/09/30 00:51:47;;;;;;;;;;;;;;;-142.75;100.00;77005.34;5035287;28;19917;-68
2022/09/30 00:54:16;;;;;;;;;;;;;;;-142.75;100.00;77003.38;5017375;28;20379;-67
2022/09/30 00:56:44;;;;;;;;;;;;;;;-142.75;100.00;77001.41;5034455;28;19924;-68
2022/09/30 00:59:23;;;;;;;;;;;;;;;-142.75;100.00;77009.28;5034896;28;20302;-68
2022/09/30 01:01:48;;;;;;;;;;;;;;;-142.75;100.00;77001.41;5034698;28;19967;-68
2022/09/30 01:04:14;;;;;;;;;;;;;;;-142.75;100.00;77003.38;5034763;28;19913;-68
2022/09/30 01:06:40;;;;;;;;;;;;;;;-142.75;100.00;77017.16;5034267;28;20359;-68
2022/09/30 01:09:05;;;;;;;;;;;;;;;-142.75;100.00;77013.22;5034631;28;19913;-68
2022/09/30 01:11:31;;;;;;;;;;;;;;;-142.75;100.00;77023.06;5034628;28;19921;-68
2022/09/30 01:13:58;;;;;;;;;;;;;;;-142.75;100.00;77023.06;5034520;28;20382;-68
2022/09/30 01:16:23;;;;;;;;;;;;;;;-142.75;100.00;77030.94;5032634;28;19920;-68
2022/09/30 01:18:49;;;;;;;;;;;;;;;-142.75;100.00;77036.84;5016531;28;19920;-68
2022/09/30 01:21:32;;;;;;;;;;;;;;;-142.75;100.00;77036.84;5034347;28;20583;-68
2022/09/30 01:24:14;;;;;;;;;;;;;;;-142.75;100.00;77044.72;5034338;28;20367;-68
2022/09/30 01:26:49;;;;;;;;;;;;;;;-142.75;100.00;77052.59;5033922;28;19976;-67
2022/09/30 01:29:43;;;;;;;;;;;;;;;-142.75;100.00;77056.53;5016563;28;19921;-68
2022/09/30 01:32:26;;;;;;;;;;;;;;;-142.75;100.00;77046.69;5021004;28;19917;-68
2022/09/30 01:34:58;;;;;;;;;;;;;;;-142.75;100.00;77040.78;5034114;28;20290;-67
2022/09/30 01:37:43;;;;;;;;;;;;;;;-142.75;100.00;77040.78;5016004;28;19919;-68
2022/09/30 01:40:21;;;;;;;;;;;;;;;-142.75;100.00;77046.69;5033742;28;20008;-68
2022/09/30 01:42:55;;;;;;;;;;;;;;;-142.75;100.00;77042.75;5033939;28;19917;-67
2022/09/30 01:45:27;;;;;;;;;;;;;;;-142.75;100.00;77038.81;5033832;28;19913;-68
2022/09/30 01:47:59;;;;;;;;;;;;;;;-142.75;100.00;77030.94;5033723;28;19919;-68
2022/09/30 01:50:43;;;;;;;;;;;;;;;-142.75;100.00;77023.06;5033778;28;20371;-68
2022/09/30 01:53:08;;;;;;;;;;;;;;;-142.75;100.00;77025.03;5033845;28;20012;-68
2022/09/30 01:58:17;;;;;;;;;;;;;;;-142.75;100.00;77030.94;5045104;23;19929;-68
2022/09/30 02:00:45;;;;;;;;;;;;;;;-142.75;100.00;77025.03;5032415;28;19917;-68
2022/09/30 02:03:15;;;;;;;;;;;;;;;-142.75;100.00;77023.06;5033641;28;19924;-67
2022/09/30 02:05:47;;;;;;;;;;;;;;;-142.75;100.00;77027.00;5033555;28;19920;-68
2022/09/30 02:08:19;;;;;;;;;;;;;;;-142.75;100.00;77025.03;5033720;28;19913;-67
2022/09/30 02:10:48;;;;;;;;;;;;;;;-142.75;100.00;77038.81;5033775;28;20011;-66
2022/09/30 02:13:29;;;;;;;;;;;;;;;-142.75;100.00;77052.59;5033550;28;19913;-67
2022/09/30 02:15:58;;;;;;;;;;;;;;;-142.75;100.00;77088.03;5033465;28;20279;-67
2022/09/30 02:18:23;;;;;;;;;;;;;;;-142.75;100.00;77135.28;5033057;28;19999;-68
2022/09/30 02:20:53;;;;;;;;;;;;;;;-142.75;100.00;77129.38;5031855;28;20005;-67
2022/09/30 02:23:20;;;;;;;;;;;;;;;-142.75;100.00;77129.38;5033375;28;19920;-67
2022/09/30 02:25:54;;;;;;;;;;;;;;;-142.75;100.00;77123.47;5033251;28;20011;-66
2022/09/30 02:28:25;;;;;;;;;;;;;;;-142.75;100.00;77125.44;5033002;28;19913;-65
2022/09/30 02:30:52;;;;;;;;;;;;;;;-142.75;100.00;77151.03;5033271;28;20307;-68
2022/09/30 02:33:28;;;;;;;;;;;;;;;-142.75;100.00;77168.75;5033051;28;19920;-67
2022/09/30 02:35:58;;;;;;;;;;;;;;;-142.75;100.00;77166.78;5031785;28;19924;-67
2022/09/30 02:38:27;;;;;;;;;;;;;;;-142.75;100.00;77168.75;5025964;28;19913;-67
2022/09/30 02:40:55;;;;;;;;;;;;;;;-142.75;100.00;77151.03;5031677;28;19924;-68
2022/09/30 02:43:21;;;;;;;;;;;;;;;-142.75;100.00;77153.00;5032777;28;20303;-68
2022/09/30 02:45:50;;;;;;;;;;;;;;;-142.75;100.00;77168.75;5032381;28;19921;-68
2022/09/30 02:48:23;;;;;;;;;;;;;;;-142.75;100.00;77156.94;5031916;28;20000;-68
2022/09/30 02:50:53;;;;;;;;;;;;;;;-142.75;100.00;77141.19;5032471;28;19924;-67
2022/09/30 02:53:37;;;;;;;;;;;;;;;-142.75;100.00;77125.44;5030820;28;19921;-67
2022/09/30 02:56:11;;;;;;;;;;;;;;;-142.75;100.00;77109.69;5032556;28;19921;-68
2022/09/30 02:58:39;;;;;;;;;;;;;;;-142.75;100.00;77101.81;5031591;28;19917;-68
2022/09/30 03:01:14;;;;;;;;;;;;;;;-142.75;100.00;77097.88;5030651;28;19940;-68
2022/09/30 03:03:51;;;;;;;;;;;;;;;-142.75;100.00;77090.00;5030910;28;19913;-67
2022/09/30 03:06:18;;;;;;;;;;;;;;;-142.75;100.00;77095.91;5031193;28;20307;-67
2022/09/30 03:08:43;;;;;;;;;;;;;;;-142.75;100.00;77097.88;5030953;28;20290;-68
2022/09/30 03:11:29;;;;;;;;;;;;;;;-142.75;100.00;77091.97;5032507;28;20004;-68
2022/09/30 03:14:21;;;;;;;;;;;;;;;-142.75;100.00;77101.81;5032225;28;19913;-67
2022/09/30 03:16:51;;;;;;;;;;;;;;;-142.75;100.00;77097.88;5032100;28;20361;-68
2022/09/30 03:19:35;;;;;;;;;;;;;;;-142.75;100.00;77101.81;5032333;28;20311;-67
2022/09/30 03:22:18;;;;;;;;;;;;;;;-142.75;100.00;77093.94;5030978;28;20414;-67
2022/09/30 03:24:55;;;;;;;;;;;;;;;-142.75;100.00;77095.91;5032366;28;19963;-66
2022/09/30 03:27:20;;;;;;;;;;;;;;;-142.75;100.00;77090.00;5031889;28;19913;-68
2022/09/30 03:29:45;;;;;;;;;;;;;;;-142.75;100.00;77080.16;5032246;28;19913;-67
2022/09/30 03:32:20;;;;;;;;;;;;;;;-142.75;100.00;77082.13;5030932;28;19920;-68
2022/09/30 03:34:51;;;;;;;;;;;;;;;-142.75;100.00;77084.09;5032265;28;19913;-67
2022/09/30 03:37:25;;;;;;;;;;;;;;;-142.75;100.00;77084.09;5031870;28;19917;-68
2022/09/30 03:39:56;;;;;;;;;;;;;;;-142.75;100.00;77084.09;5032216;28;20000;-67
2022/09/30 03:42:28;;;;;;;;;;;;;;;-142.75;100.00;77093.94;5032078;28;19918;-67
2022/09/30 03:45:16;;;;;;;;;;;;;;;-142.75;100.00;77099.84;5032099;28;20008;-68
2022/09/30 03:47:50;;;;;;;;;;;;;;;-142.75;100.00;77129.38;5030330;28;19979;-67
2022/09/30 03:50:19;;;;;;;;;;;;;;;-142.75;100.00;77123.47;5032029;28;19953;-67
2022/09/30 03:52:45;;;;;;;;;;;;;;;-142.75;100.00;77109.69;5032279;28;19964;-67
2022/09/30 03:55:10;;;;;;;;;;;;;;;-142.75;100.00;77105.75;5032357;28;20302;-68
2022/09/30 03:57:36;;;;;;;;;;;;;;;-142.75;100.00;77107.72;5031583;28;19921;-68
2022/09/30 04:00:01;;;;;;;;;;;;;;;-142.75;100.00;77113.63;5032036;28;19913;-68
2022/09/30 04:02:27;;;;;;;;;;;;;;;-142.75;100.00;77117.56;5031922;28;19917;-67
2022/09/30 04:04:52;;;;;;;;;;;;;;;-142.75;100.00;77111.66;5035859;28;19914;-67
2022/09/30 04:07:17;;;;;;;;;;;;;;;-142.75;100.00;77109.69;5035486;28;19913;-68
2022/09/30 04:09:42;;;;;;;;;;;;;;;-142.75;100.00;77103.78;5035779;28;19913;-69
2022/09/30 04:12:08;;;;;;;;;;;;;;;-142.75;100.00;77097.88;5034504;28;20470;-68
2022/09/30 04:14:34;;;;;;;;;;;;;;;-142.75;100.00;77101.81;5035720;28;19913;-68
2022/09/30 04:16:59;;;;;;;;;;;;;;;-142.75;100.00;77101.81;5035231;28;19913;-68
2022/09/30 04:19:25;;;;;;;;;;;;;;;-142.75;100.00;77099.84;5035604;28;19913;-67
2022/09/30 04:21:51;;;;;;;;;;;;;;;-142.75;100.00;77099.84;5035493;28;19924;-67
2022/09/30 04:24:16;;;;;;;;;;;;;;;-142.75;100.00;77105.75;5026259;28;19921;-67
2022/09/30 04:26:41;;;;;;;;;;;;;;;-142.75;100.00;77111.66;5015375;28;19914;-67
2022/09/30 04:29:06;;;;;;;;;;;;;;;-142.75;100.00;77121.50;5014401;28;19920;-67
2022/09/30 04:31:31;;;;;;;;;;;;;;;-142.75;100.00;77127.41;5015636;28;19913;-67
2022/09/30 04:33:57;;;;;;;;;;;;;;;-142.75;100.00;77123.47;5015513;28;19937;-67
2022/09/30 04:36:22;;;;;;;;;;;;;;;-142.75;100.00;77121.50;5015470;28;19961;-67
2022/09/30 04:38:47;;;;;;;;;;;;;;;-142.75;100.00;77115.59;5015236;28;19968;-67
2022/09/30 04:41:16;;;;;;;;;;;;;;;-142.75;100.00;77113.63;5015347;28;19929;-67
2022/09/30 04:43:45;;;;;;;;;;;;;;;-142.75;100.00;77113.63;5015426;28;19960;-67
2022/09/30 04:46:11;;;;;;;;;;;;;;;-142.75;100.00;77113.63;5015209;28;20342;-67
2022/09/30 04:48:36;;;;;;;;;;;;;;;-142.75;100.00;77103.78;5014976;28;19918;-67
2022/09/30 04:51:01;;;;;;;;;;;;;;;-142.75;100.00;77107.72;5015257;28;19917;-67
2022/09/30 04:53:27;;;;;;;;;;;;;;;-142.75;100.00;77111.66;5015246;28;20295;-66
2022/09/30 04:55:57;;;;;;;;;;;;;;;-142.75;100.00;77105.75;5015008;28;19959;-67
2022/09/30 04:58:23;;;;;;;;;;;;;;;-142.75;100.00;77111.66;5014917;28;19967;-67
2022/09/30 05:00:48;;;;;;;;;;;;;;;-142.75;100.00;77101.81;5015056;28;19929;-67
2022/09/30 05:03:13;;;;;;;;;;;;;;;-142.75;100.00;77097.88;5014885;28;19929;-67
2022/09/30 05:05:42;;;;;;;;;;;;;;;-142.75;100.00;77095.91;5014928;28;20364;-67
2022/09/30 05:08:08;;;;;;;;;;;;;;;-142.75;100.00;77091.97;5014667;28;19983;-67
2022/09/30 05:10:33;;;;;;;;;;;;;;;-142.75;100.00;77107.72;5014992;28;20388;-66
2022/09/30 05:12:58;;;;;;;;;;;;;;;-142.75;100.00;77117.56;5014878;28;19930;-67
2022/09/30 05:15:24;;;;;;;;;;;;;;;-142.75;100.00;77121.50;5013939;28;19913;-67
2022/09/30 05:17:49;;;;;;;;;;;;;;;-142.75;100.00;77129.38;5014325;28;19913;-67
2022/09/30 05:20:14;;;;;;;;;;;;;;;-142.75;100.00;77121.50;5014752;28;20016;-66
2022/09/30 05:22:39;;;;;;;;;;;;;;;-142.75;100.00;77115.59;5013324;28;19956;-68
2022/09/30 05:25:05;;;;;;;;;;;;;;;-142.75;100.00;77109.69;5014692;28;19979;-67
2022/09/30 05:27:30;;;;;;;;;;;;;;;-142.75;100.00;77105.75;5014193;28;20383;-67
2022/09/30 05:29:55;;;;;;;;;;;;;;;-142.75;100.00;77097.88;5014470;28;20011;-67
2022/09/30 05:32:21;;;;;;;;;;;;;;;-142.75;100.00;77107.72;5014416;28;19913;-67
2022/09/30 05:34:46;;;;;;;;;;;;;;;-142.75;100.00;77099.84;5014456;28;19917;-67
2022/09/30 05:37:12;;;;;;;;;;;;;;;-142.75;100.00;77090.00;5032960;28;20455;-65
2022/09/30 05:39:37;;;;;;;;;;;;;;;-142.75;100.00;77093.94;5032888;28;20410;-67
2022/09/30 05:42:02;;;;;;;;;;;;;;;-142.75;100.00;77091.97;5034002;28;19924;-67
2022/09/30 05:44:28;;;;;;;;;;;;;;;-142.75;100.00;77101.81;5034006;28;19913;-67
2022/09/30 05:46:53;;;;;;;;;;;;;;;-142.75;100.00;77101.81;5032357;28;19913;-67
2022/09/30 05:49:18;;;;;;;;;;;;;;;-142.75;100.00;77097.88;5033862;28;19913;-67
2022/09/30 05:51:43;;;;;;;;;;;;;;;-142.75;100.00;77101.81;5020352;28;19925;-67
2022/09/30 05:54:09;;;;;;;;;;;;;;;-142.75;100.00;77093.94;5014153;28;19913;-67
2022/09/30 05:56:34;;;;;;;;;;;;;;;-142.75;100.00;77086.06;5027275;28;19921;-67
2022/09/30 05:59:00;;;;;;;;;;;;;;;-142.75;100.00;77084.09;5032948;28;19917;-67
2022/09/30 06:01:25;;;;;;;;;;;;;;;-142.75;100.00;77062.44;5033426;28;19979;-68
2022/09/30 06:03:51;;;;;;;;;;;;;;;-142.75;100.00;77068.34;5033371;28;19943;-68
2022/09/30 06:06:17;;;;;;;;;;;;;;;-142.75;100.00;77052.59;5033406;28;19924;-67
2022/09/30 06:08:43;;;;;;;;;;;;;;;-142.75;100.00;77036.84;5033156;28;19935;-67
2022/09/30 06:11:10;;;;;;;;;;;;;;;-142.75;100.00;77042.75;5033340;28;19913;-67
2022/09/30 06:13:36;;;;;;;;;;;;;;;-142.75;100.00;77023.06;5033548;28;19948;-67
2022/09/30 06:16:01;;;;;;;;;;;;;;;-142.75;100.00;77017.16;5032023;28;20596;-67
2022/09/30 06:18:27;;;;;;;;;;;;;;;-142.75;100.00;77019.13;5029916;28;19917;-67
2022/09/30 06:20:55;;;;;;;;;;;;;;;-142.75;100.00;76997.47;5032076;28;19913;-67
2022/09/30 06:23:20;;;;;;;;;;;;;;;-142.75;100.00;76983.69;5033287;28;19917;-67
2022/09/30 06:25:49;;;;;;;;;;;;;;;-142.75;100.00;76981.72;5031890;28;20379;-67
2022/09/30 06:28:14;;;;;;;;;;;;;;;-142.75;100.00;76960.06;5032891;28;20340;-67
2022/09/30 06:30:39;;;;;;;;;;;;;;;-142.75;100.00;76944.31;5032131;28;19968;-67
2022/09/30 06:33:05;;;;;;;;;;;;;;;-142.75;100.00;76932.50;5033107;28;19992;-67
2022/09/30 06:35:30;;;;;;;;;;;;;;;-142.75;100.00;76920.69;5022884;28;19957;-67
2022/09/30 06:37:55;;;;;;;;;;;;;;;-142.75;100.00;76920.69;5021315;28;19971;-67
2022/09/30 06:40:20;;;;;;;;;;;;;;;-142.75;100.00;76912.81;5019745;28;20037;-67
2022/09/30 06:42:47;;;;;;;;;;;;;;;-142.75;100.00;76887.22;5013151;28;20029;-68
2022/09/30 06:45:12;;;;;;;;;;;;;;;-142.75;100.00;76881.31;5013074;28;19914;-67
2022/09/30 06:47:37;;;;;;;;;;;;;;;-142.75;100.00;76869.50;5011457;28;19917;-67
2022/09/30 06:50:03;;;;;;;;;;;;;;;-142.75;100.00;76853.75;5013062;28;19990;-67
2022/09/30 06:52:28;;;;;;;;;;;;;;;-142.75;100.00;76814.38;5011740;28;19913;-67
2022/09/30 06:54:56;;;;;;;;;;;;;;;-142.75;100.00;76802.56;5013020;28;19921;-68
2022/09/30 06:57:23;;;;;;;;;;;;;;;-142.75;100.00;76788.81;5011189;28;19924;-68
2022/09/30 06:59:49;;;;;;;;;;;;;;;-142.75;100.00;76777.00;5012952;28;20291;-68
2022/09/30 07:02:15;;;;;;;;;;;;;;;-142.75;100.00;76757.31;5012791;28;19924;-68
2022/09/30 07:04:40;;;;;;;;;;;;;;;-142.75;100.00;76729.75;5013802;28;19917;-68
2022/09/30 07:07:06;;;;;;;;;;;;;;;-142.75;100.00;76715.97;5023427;28;19941;-65
2022/09/30 07:09:31;;;;;;;;;;;;;;;-142.75;100.00;76714.00;5023993;28;20008;-66
2022/09/30 07:11:56;;;;;;;;;;;;;;;-142.75;100.00;76692.34;5023294;28;19975;-68
2022/09/30 07:14:22;;;;;;;;;;;;;;;-142.75;100.00;76674.63;5021156;28;19913;-67
2022/09/30 07:16:49;;;;;;;;;;;;;;;-142.75;100.00;76627.38;5022852;28;19921;-69
2022/09/30 07:19:16;;;;;;;;;;;;;;;-142.75;100.00;76611.63;5022012;28;20465;-69
2022/09/30 07:21:41;;;;;;;;;;;;;;;-142.75;100.00;76645.09;5029454;28;19917;-68
2022/09/30 07:24:08;;;;;;;;;;;;;;;-142.75;100.00;76625.41;5017830;28;20375;-67
2022/09/30 07:26:33;;;;;;;;;;;;;;;-142.75;100.00;76601.78;5018219;28;19917;-67
2022/09/30 07:28:59;;;;;;;;;;;;;;;-142.75;100.00;76582.09;5042827;28;19913;-68
2022/09/30 07:31:24;;;;;;;;;;;;;;;-142.75;100.00;76556.50;5013826;28;20015;-67
2022/09/30 07:33:50;;;;;;;;;;;;;;;-142.75;100.00;76550.59;5040474;28;19953;-68
2022/09/30 07:36:17;;;;;;;;;;;;;;;-142.75;100.00;76532.88;5030600;28;20286;-68
2022/09/30 07:38:42;;;;;;;;;;;;;;;-142.75;100.00;76525.03;5031424;28;20387;-69
2022/09/30 07:41:12;;;;;;;;;;;;;;;-142.75;100.00;76528.97;5036265;28;20052;-69
2022/09/30 07:43:38;;;;;;;;;;;;;;;-142.75;100.00;76530.91;5030429;28;19924;-69
2022/09/30 07:46:05;;;;;;;;;;;;;;;-142.75;100.00;76497.47;5034235;28;19919;-69
2022/09/30 07:48:41;;;;;;;;;;;;;;;-142.75;100.00;76495.50;5036469;28;19913;-69
2022/09/30 07:51:07;;;;;;;;;;;;;;;-142.75;100.00;76460.06;5033576;28;19917;-69
2022/09/30 07:53:33;;;;;;;;;;;;;;;-142.75;100.00;76412.81;5053681;28;19928;-69
2022/09/30 07:56:01;;;;;;;;;;;;;;;-142.75;100.00;76361.63;5022991;28;20346;-68
2022/09/30 07:58:27;;;;;;;;;;;;;;;-142.75;100.00;76351.81;5037584;23;19926;-67
2022/09/30 08:00:52;;;;;;;;;;;;;;;-142.75;100.00;76326.22;5017259;28;19917;-67
2022/09/30 08:03:17;;;;;;;;;;;;;;;-142.75;100.00;76314.41;5018652;28;20326;-68
2022/09/30 08:05:44;;;;;;;;;;;;;;;-142.75;100.00;76306.53;5018909;28;19913;-67
2022/09/30 08:08:09;;;;;;;;;;;;;;;-142.75;100.00;76292.75;5018447;28;19967;-67
2022/09/30 08:10:35;;;;;;;;;;;;;;;-142.75;100.00;76275.03;5018734;28;19913;-67
2022/09/30 08:13:00;;;;;;;;;;;;;;;-142.75;100.00;76245.50;5018657;28;19913;-67
2022/09/30 08:15:25;;;;;;;;;;;;;;;-142.75;100.00;76235.66;5018637;28;19914;-67
2022/09/30 08:17:51;;;;;;;;;;;;;;;-142.75;100.00;76223.84;5016998;28;19913;-67
2022/09/30 08:20:16;;;;;;;;;;;;;;;-142.75;100.00;76219.91;5018548;28;19918;-68
2022/09/30 08:22:41;;;;;;;;;;;;;;;-142.75;100.00;76145.13;5018523;28;20409;-67
2022/09/30 08:25:06;;;;;;;;;;;;;;;-142.75;100.00;76154.97;5018587;28;19913;-67
2022/09/30 08:27:31;;;;;;;;;;;;;;;-142.75;100.00;76194.34;5018221;28;20379;-67
2022/09/30 08:29:58;;;;;;;;;;;;;;;-142.75;100.00;76160.88;5016537;28;20390;-67
2022/09/30 08:32:24;;;;;;;;;;;;;;;-142.75;100.00;76133.31;5018497;28;20009;-68
2022/09/30 08:34:49;;;;;;;;;;;;;;;-142.75;100.00;76093.94;5018534;28;19960;-67
2022/09/30 08:37:14;;;;;;;;;;;;;;;-142.75;100.00;76097.88;5018148;28;20580;-67
2022/09/30 08:39:39;;;;;;;;;;;;;;;-142.75;100.00;76093.94;5022305;28;19928;-67
2022/09/30 08:42:23;;;;;;;;;;;;;;;-142.75;100.00;76062.47;5022657;28;19936;-67
2022/09/30 08:44:49;;;;;;;;;;;;;;;-142.75;100.00;76030.97;5030122;28;19972;-67
2022/09/30 08:47:28;;;;;;;;;;;;;;;-142.75;100.00;75981.75;5029321;28;19917;-67
2022/09/30 08:49:56;;;;;;;;;;;;;;;-142.75;100.00;76015.22;5025513;28;19932;-67
2022/09/30 08:52:24;;;;;;;;;;;;;;;-142.75;100.00;76027.03;5025790;28;19914;-66
2022/09/30 08:54:51;;;;;;;;;;;;;;;-142.75;100.00;76052.63;5018062;28;19925;-67
2022/09/30 08:57:17;;;;;;;;;;;;;;;-142.75;100.00;76086.06;5028097;28;19921;-68
2022/09/30 08:59:48;;;;;;;;;;;;;;;-142.75;100.00;76034.91;5021077;28;19920;-67
2022/09/30 09:02:39;;;;;;;;;;;;;;;-142.75;100.00;76003.41;5016529;28;19933;-68
2022/09/30 09:05:06;;;;;;;;;;;;;;;-142.75;100.00;75956.19;5015543;28;19913;-66
2022/09/30 09:07:40;;;;;;;;;;;;;;;-142.75;100.00;75936.50;5024975;28;20404;-68
2022/09/30 09:10:12;;;;;;;;;;;;;;;-142.75;100.00;75920.75;5020091;28;20379;-68
2022/09/30 09:12:52;;;;;;;;;;;;;;;-142.75;100.00;75956.19;5013712;28;20371;-67
2022/09/30 09:15:36;;;;;;;;;;;;;;;-142.75;100.00;75952.25;5021143;28;20371;-68
2022/09/30 09:18:17;;;;;;;;;;;;;;;-142.75;100.00;75942.41;5027363;28;19913;-68
2022/09/30 09:21:03;;;;;;;;;;;;;;;-142.75;100.00;75944.38;5029561;28;19917;-67
2022/09/30 09:23:30;;;;;;;;;;;;;;;-142.75;100.00;75922.72;5020116;28;19967;-67
2022/09/30 09:25:55;;;;;;;;;;;;;;;-142.75;100.00;75881.38;5025606;28;20001;-67
2022/09/30 09:28:26;;;;;;;;;;;;;;;-142.75;100.00;75914.84;5031106;28;19956;-68
2022/09/30 09:30:54;;;;;;;;;;;;;;;-142.75;100.00;75922.72;5015699;28;19919;-68
2022/09/30 09:33:21;;;;;;;;;;;;;;;-142.75;100.00;75889.25;5020394;28;20345;-68
2022/09/30 09:36:05;;;;;;;;;;;;;;;-142.75;100.00;75865.63;5020867;28;19921;-68
2022/09/30 09:38:36;;;;;;;;;;;;;;;-142.75;100.00;75869.56;5024216;28;19917;-68
2022/09/30 09:41:02;;;;;;;;;;;;;;;-142.75;100.00;75810.53;5014630;28;19917;-68
2022/09/30 09:43:29;;;;;;;;;;;;;;;-142.75;100.00;75871.53;5014272;28;20013;-67
2022/09/30 09:45:54;;;;;;;;;;;;;;;-142.75;100.00;75865.63;5018988;28;19952;-67
2022/09/30 09:48:19;;;;;;;;;;;;;;;-142.75;100.00;75857.78;5020962;28;20329;-69
2022/09/30 09:50:49;;;;;;;;;;;;;;;-142.75;100.00;75822.34;5024759;28;19917;-67
2022/09/30 09:53:26;;;;;;;;;;;;;;;-142.75;100.00;75842.03;5021392;28;19913;-68
2022/09/30 09:55:54;;;;;;;;;;;;;;;-142.75;100.00;75816.44;5022549;28;19913;-68
2022/09/30 09:58:20;;;;;;;;;;;;;;;-142.75;100.00;75796.75;5020704;28;19971;-68
2022/09/30 10:03:17;;;;;;;;;;;;;;;-142.75;100.00;75853.84;5013964;28;19917;-68
2022/09/30 10:05:43;;;;;;;;;;;;;;;-142.75;100.00;75838.09;5013851;28;19913;-69
2022/09/30 10:08:18;;;;;;;;;;;;;;;-142.75;100.00;75816.44;5013531;28;19920;-67
2022/09/30 10:10:55;;;;;;;;;;;;;;;-142.75;100.00;75775.09;5013651;28;19936;-68
2022/09/30 10:13:22;;;;;;;;;;;;;;;-142.75;100.00;75749.53;5012272;28;20383;-68
2022/09/30 10:15:49;;;;;;;;;;;;;;;-142.75;100.00;75769.19;5010569;28;19936;-69
2022/09/30 10:18:28;;;;;;;;;;;;;;;-142.75;100.00;75714.09;5010677;28;20000;-68
2022/09/30 10:21:14;;;;;;;;;;;;;;;-142.75;100.00;75790.84;5009225;28;20270;-68
2022/09/30 10:23:39;;;;;;;;;;;;;;;-142.75;100.00;75749.53;5007371;28;19925;-69
2022/09/30 10:26:13;;;;;;;;;;;;;;;-142.75;100.00;75716.06;5009019;28;19925;-68
2022/09/30 10:28:48;;;;;;;;;;;;;;;-142.75;100.00;75788.88;5008169;28;19921;-68
2022/09/30 10:31:21;;;;;;;;;;;;;;;-142.75;100.00;75818.41;5006782;28;19917;-69
2022/09/30 10:33:49;;;;;;;;;;;;;;;-142.75;100.00;75735.75;5009627;28;19918;-68
2022/09/30 10:36:19;;;;;;;;;;;;;;;-142.75;100.00;75792.81;5000501;28;19918;-68
2022/09/30 10:39:04;;;;;;;;;;;;;;;-142.75;100.00;75867.59;5009770;28;20399;-68
2022/09/30 10:41:31;;;;;;;;;;;;;;;-142.75;100.00;75849.91;5009354;28;19929;-68
2022/09/30 10:43:58;;;;;;;;;;;;;;;-142.75;100.00;75842.03;5011689;28;19918;-68
2022/09/30 10:46:31;;;;;;;;;;;;;;;-142.75;100.00;75814.47;5008376;28;19918;-68
2022/09/30 10:48:57;;;;;;;;;;;;;;;-142.75;100.00;75806.59;5008126;28;19917;-68
2022/09/30 10:51:28;;;;;;;;;;;;;;;-142.75;100.00;75782.97;5008394;28;19924;-68
2022/09/30 10:53:54;;;;;;;;;;;;;;;-142.75;100.00;75816.44;5009815;28;19921;-68
2022/09/30 10:56:33;;;;;;;;;;;;;;;-142.75;100.00;75798.72;5010181;28;20012;-68
2022/09/30 10:58:59;;;;;;;;;;;;;;;-142.75;100.00;75844.00;5005567;28;20000;-69
2022/09/30 11:01:27;;;;;;;;;;;;;;;-142.75;100.00;75855.81;5005175;28;19960;-67
2022/09/30 11:04:06;;;;;;;;;;;;;;;-142.75;100.00;75802.66;5011330;28;19917;-67
2022/09/30 11:06:32;;;;;;;;;;;;;;;-142.75;100.00;75712.13;5008699;28;19924;-67
2022/09/30 11:09:02;;;;;;;;;;;;;;;-142.75;99.77;75660.97;5011168;28;19925;-67
2022/09/30 11:11:32;;;;;;;;;;;;;;;-142.75;98.79;75765.25;5001993;28;19917;-67
2022/09/30 11:14:10;;;;;;;;;;;;;;;-142.75;99.06;75794.78;5002751;28;19924;-67
2022/09/30 11:16:56;;;;;;;;;;;;;;;-142.75;96.30;75794.78;5003755;28;19968;-67
2022/09/30 11:19:39;;;;;;;;;;;;;;;-142.75;99.94;75794.78;5007999;28;20342;-67
2022/09/30 11:22:21;;;;;;;;;;;;;;;-142.75;100.00;75698.34;5012556;28;19917;-69
2022/09/30 11:24:47;;;;;;;;;;;;;;;-142.75;97.05;75716.06;5011046;28;19925;-67
2022/09/30 11:27:23;;;;;;;;;;;;;;;-142.75;100.00;75782.97;5009045;28;19928;-67
2022/09/30 11:30:01;;;;;;;;;;;;;;;-142.75;100.00;75806.59;5008061;28;20318;-67
2022/09/30 11:32:55;;;;;;;;;;;;;;;-142.75;100.00;75928.63;5008969;28;19925;-67
2022/09/30 11:35:40;;;;;;;;;;;;;;;-142.75;100.00;75967.97;4993786;28;19914;-67
2022/09/30 11:38:13;;;;;;;;;;;;;;;-142.75;100.00;75960.13;5009808;28;19964;-67
2022/09/30 11:40:48;;;;;;;;;;;;;;;-142.75;100.00;75912.88;5010711;28;19931;-67
2022/09/30 11:43:20;;;;;;;;;;;;;;;-142.75;100.00;75905.00;5009390;28;19971;-67
2022/09/30 11:46:04;;;;;;;;;;;;;;;-142.75;100.00;75853.84;5010680;28;19963;-67
2022/09/30 11:48:48;;;;;;;;;;;;;;;-142.75;100.00;75903.03;5008501;28;19967;-67
2022/09/30 11:51:22;;;;;;;;;;;;;;;-142.75;100.00;75842.03;4998708;28;19917;-67
2022/09/30 11:53:54;;;;;;;;;;;;;;;-142.75;100.00;75741.66;5009236;28;19921;-67
2022/09/30 11:56:22;;;;;;;;;;;;;;;-142.75;100.00;75723.94;5006250;28;19929;-66
2022/09/30 11:58:52;;;;;;;;;;;;;;;-142.75;100.00;75859.72;5010266;28;19921;-67
2022/09/30 12:01:18;;;;;;;;;;;;;;;-142.75;100.00;75847.94;5007175;28;19924;-67
2022/09/30 12:03:46;;;;;;;;;;;;;;;-142.75;100.00;75926.66;5006297;28;20439;-67
2022/09/30 12:06:20;;;;;;;;;;;;;;;-142.75;100.00;75881.38;5006883;28;19921;-67
2022/09/30 12:08:49;;;;;;;;;;;;;;;-142.75;100.00;75806.59;5008113;28;20522;-67
2022/09/30 12:11:20;;;;;;;;;;;;;;;-142.75;100.00;75757.41;5008625;28;19940;-67
2022/09/30 12:13:50;;;;;;;;;;;;;;;-142.75;100.00;75777.06;4990632;28;19918;-68
2022/09/30 12:16:19;;;;;;;;;;;;;;;-142.75;94.62;75790.84;5011969;28;19917;-67
2022/09/30 12:18:52;;;;;;;;;;;;;;;-142.75;98.22;75842.03;5011831;28;19918;-67
2022/09/30 12:21:20;;;;;;;;;;;;;;;-142.75;98.61;75822.34;5014011;28;20009;-67
2022/09/30 12:23:53;;;;;;;;;;;;;;;-142.75;99.19;75861.69;5019103;28;19918;-67
2022/09/30 12:26:19;;;;;;;;;;;;;;;-142.75;100.00;75863.66;5031153;28;20427;-67
2022/09/30 12:32:05;;;;;;;;;;;;;;;-142.75;100.00;75973.88;5011791;28;19968;-65
2022/09/30 12:34:50;;;;;;;;;;;;;;;-142.75;100.00;75952.25;5014287;28;20701;-67
2022/09/30 12:37:21;;;;;;;;;;;;;;;-142.75;100.00;75924.69;5015050;28;19964;-67